Flight Track Log - Related Links

Times and Time Zones

All times are in EDT time to prevent confusion due to time zone crossing. See the ASQ5745 flight status page for this flight to view local times or setup timezone preferences in your user account.

Time Position Orientation Groundspeed Altitude Reporting Facility
EDT Latitude Longitude Course Direction KTS MPH feet Rate Location/Type
Thu 08:41:57 AM 38.9667 -77.4333 North 182 209 1,800  Level Potomac TRACON
Thu 08:43:03 AM 39.0500 -77.4500 351° North 254 292 4,700 2,678 Climbing Potomac TRACON
Thu 08:43:58 AM 39.1167 -77.4500 360° North 264 304 7,200 2,504 Climbing Potomac TRACON
Thu 08:44:00 AM 39.2091 -77.4500 North  Level FlightAware Approximate
Thu 08:44:58 AM 39.1833 -77.4500 360° North 286 329 9,500  Level Potomac TRACON
Thu 08:45:00 AM 39.3010 -77.4500 North  Level FlightAware Approximate
Thu 08:46:00 AM 39.3929 -77.4500 North  Level FlightAware Approximate
Thu 08:47:00 AM 39.4848 -77.4500 North  Level FlightAware Approximate
Thu 08:47:10 AM 39.3786 -77.4469 North 331 381 13,100  Level Washington Center
Thu 08:48:08 AM 39.4764 -77.4519 358° North 336 387 14,900 2,265 Climbing Washington Center
Thu 08:49:41 AM 39.6428 -77.4522 360° North 371 427 18,800 1,855 Climbing New York Center
Thu 08:50:40 AM 39.7425 -77.4561 358° North 359 413 19,600 850 Climbing New York Center
Thu 08:51:41 AM 39.8450 -77.4525 North 365 420 20,500 885 Climbing New York Center
Thu 08:52:42 AM 39.9497 -77.4083 18° North 371 427 21,400 836 Climbing New York Center
Thu 08:53:43 AM 40.0481 -77.3281 32° Northeast 388 447 22,200 756 Climbing New York Center
Thu 08:54:41 AM 40.1356 -77.2547 33° Northeast 405 466 22,900 403 Climbing New York Center
Thu 08:55:42 AM 40.2381 -77.1692 32° Northeast 424 488 23,000 49 Climbing New York Center
Thu 08:56:43 AM 40.3453 -77.0783 33° Northeast 440 506 23,000  Level New York Center
Thu 08:57:41 AM 40.4594 -77.0042 26° Northeast 451 519 23,000  Level New York Center
Thu 08:58:42 AM 40.5775 -76.9439 21° North 451 519 23,000  Level New York Center
Thu 08:59:43 AM 40.6972 -76.8861 20° North 451 519 23,000  Level New York Center
Thu 09:00:41 AM 40.8317 -76.8214 20° North 456 525 23,000  Level New York Center
Thu 09:01:41 AM 40.9408 -76.7650 21° North 463 533 23,000  Level New York Center
Thu 09:02:41 AM 41.0628 -76.7042 21° North 458 527 23,000  Level New York Center
Thu 09:03:42 AM 41.1825 -76.6431 21° North 458 527 23,000  Level New York Center
Thu 09:04:42 AM 41.3042 -76.5819 21° North 463 533 23,000  Level New York Center
Thu 09:05:41 AM 41.4281 -76.5206 20° North 463 533 23,000  Level New York Center
Thu 09:06:40 AM 41.5625 -76.4517 21° North 463 533 23,000  Level New York Center
Thu 09:07:41 AM 41.6822 -76.3869 22° Northeast 463 533 23,000  Level New York Center
Thu 09:08:42 AM 41.8019 -76.3219 22° Northeast 463 533 23,000  Level New York Center
Thu 09:09:40 AM 41.9236 -76.2594 21° North 463 533 23,000  Level New York Center
Thu 09:11:56 AM 42.1239 -75.9869 45° Northeast 462 532 23,000  Level Boston Center
Thu 09:12:56 AM 42.1797 -75.8025 68° East 493 567 23,000  Level Boston Center
Thu 09:13:56 AM 42.2328 -75.6200 69° East 507 583 23,000  Level Boston Center
Thu 09:14:56 AM 42.2881 -75.4347 68° East 518 596 23,000 -400 Level Boston Center
Thu 09:15:56 AM 42.3406 -75.2547 68° East 523 602 22,200 -1,700 Descending Boston Center
Thu 09:16:56 AM 42.3906 -75.0825 68° East 511 588 19,600 -2,656 Descending Boston Center
Thu 09:17:58 AM 42.4425 -74.9019 69° East 468 539 16,800 -2,674 Descending Boston Center
Thu 09:18:28 AM 42.4547 -74.8125 79° East 447 514 15,500 -2,276 Descending Boston Center
Thu 09:18:56 AM 42.4667 -74.7397 77° East 447 514 14,600 -1,967 Descending Boston Center
Thu 09:19:29 AM 42.4808 -74.6556 77° East 423 487 13,500 -1,800 Descending Boston Center
Thu 09:19:56 AM 42.4903 -74.5997 77° East 423 487 12,800 -2,000 Descending Boston Center
Thu 09:20:29 AM 42.5089 -74.5017 76° East 407 468 11,500 -2,100 Descending Boston Center
Thu 09:20:56 AM 42.5206 -74.4344 77° East 411 473 10,700 -1,082 Descending Boston Center
Thu 09:21:30 AM 42.5364 -74.3617 74° East 376 433 10,400 -800 Descending Boston Center
Thu 09:21:56 AM 42.5453 -74.3197 74° East 376 433 9,900 -1,377 Descending Boston Center
Thu 09:22:31 AM 42.5633 -74.2414 73° East 318 366 9,000 -1,600 Descending Boston Center
Thu 09:22:56 AM 42.5725 -74.1908 76° East 328 377 8,300 -1,800 Descending Boston Center
Thu 09:23:31 AM 42.5878 -74.1322 70° East 305 351 7,200 -1,800 Descending Boston Center
Thu 09:23:56 AM 42.5947 -74.0900 77° East 307 353 6,500 -1,881 Descending Boston Center
Thu 09:24:38 AM 42.6147 -74.0086 72° East 299 344 5,100 -1,600 Descending Boston Center
Thu 09:24:56 AM 42.6192 -73.9864 75° East 297 342 4,900 -982 Descending Boston Center
Thu 09:25:33 AM 42.6325 -73.9161 76° East 265 305 4,200 -900 Descending Boston Center
Thu 09:25:56 AM 42.6369 -73.8936 75° East 277 319 4,000 -522 Descending Boston Center

Login

Don't have an account? Register now (free) for customized features, flight alerts, and more!